createdAt,value
2022-12-24T00:00:06.067Z,2.00
2022-12-24T00:00:27.194Z,2.00
2022-12-24T00:00:48.344Z,2.10
2022-12-24T00:01:09.482Z,2.00
2022-12-24T00:01:30.552Z,2.10
2022-12-24T00:01:51.609Z,1.70
2022-12-24T00:02:12.817Z,2.10
2022-12-24T00:02:34.023Z,2.00
2022-12-24T00:02:55.222Z,1.90
2022-12-24T00:03:16.549Z,1.80
2022-12-24T00:03:37.820Z,1.90
2022-12-24T00:03:58.956Z,2.00
2022-12-24T00:04:20.025Z,2.00
2022-12-24T00:04:41.070Z,2.00
2022-12-24T00:05:02.155Z,1.90
2022-12-24T00:05:23.184Z,2.60
2022-12-24T00:05:44.237Z,2.10
2022-12-24T00:06:05.345Z,1.90
2022-12-24T00:06:26.384Z,2.00
2022-12-24T00:06:47.446Z,1.80
2022-12-24T00:07:09.703Z,2.00
2022-12-24T00:07:30.764Z,2.10
2022-12-24T00:07:51.815Z,2.20
2022-12-24T00:08:12.895Z,2.20
2022-12-24T00:08:33.930Z,2.10
2022-12-24T00:08:55.002Z,2.00
2022-12-24T00:09:16.077Z,2.00
2022-12-24T00:09:37.144Z,1.80
2022-12-24T00:09:58.209Z,2.50
2022-12-24T00:10:19.245Z,2.30
2022-12-24T00:10:40.304Z,1.90
2022-12-24T00:11:01.359Z,1.90
2022-12-24T00:11:22.426Z,2.00
2022-12-24T00:11:43.473Z,1.90
2022-12-24T00:12:04.534Z,2.00
2022-12-24T00:12:25.610Z,2.20
2022-12-24T00:12:46.667Z,2.10
2022-12-24T00:13:07.729Z,2.30
2022-12-24T00:13:28.813Z,2.50
2022-12-24T00:13:49.852Z,2.40
2022-12-24T00:14:10.928Z,2.40
2022-12-24T00:14:31.980Z,2.40
2022-12-24T00:14:53.043Z,2.40
2022-12-24T00:15:14.097Z,2.60
2022-12-24T00:15:35.163Z,2.40
2022-12-24T00:15:56.237Z,2.60
2022-12-24T00:16:17.354Z,2.30
2022-12-24T00:16:38.489Z,2.50
2022-12-24T00:16:59.575Z,2.60
2022-12-24T00:17:20.632Z,2.60
2022-12-24T00:17:41.678Z,2.30
2022-12-24T00:18:02.749Z,2.10
2022-12-24T00:18:23.834Z,2.40
2022-12-24T00:18:46.715Z,2.50
2022-12-24T00:19:08.216Z,2.50
2022-12-24T00:19:29.455Z,2.00
2022-12-24T00:19:50.488Z,2.20
2022-12-24T00:20:11.552Z,2.50
2022-12-24T00:20:32.612Z,2.40
2022-12-24T00:20:53.681Z,2.20
2022-12-24T00:21:14.747Z,2.40
2022-12-24T00:21:35.793Z,2.50
2022-12-24T00:21:56.856Z,2.40
2022-12-24T00:22:17.941Z,2.70
2022-12-24T00:22:38.971Z,2.70
2022-12-24T00:23:00.041Z,2.80
2022-12-24T00:23:21.095Z,3.00
2022-12-24T00:23:42.146Z,2.80
2022-12-24T00:24:03.219Z,2.20
2022-12-24T00:24:24.262Z,2.10
2022-12-24T00:24:45.474Z,2.20
2022-12-24T00:25:06.570Z,2.60
2022-12-24T00:25:27.603Z,2.40
2022-12-24T00:25:48.661Z,2.20
2022-12-24T00:26:09.718Z,2.30
2022-12-24T00:26:30.783Z,2.20
2022-12-24T00:26:51.834Z,2.30
2022-12-24T00:27:12.912Z,2.20
2022-12-24T00:27:33.968Z,2.00
2022-12-24T00:27:55.030Z,2.00
2022-12-24T00:28:16.083Z,1.80
2022-12-24T00:28:37.157Z,1.90
2022-12-24T00:28:58.201Z,1.90
2022-12-24T00:29:19.263Z,1.80
2022-12-24T00:29:40.360Z,2.30
2022-12-24T00:30:01.393Z,2.60
2022-12-24T00:30:22.464Z,2.40
2022-12-24T00:30:43.577Z,2.30
2022-12-24T00:31:04.643Z,2.00
2022-12-24T00:31:25.712Z,2.00
2022-12-24T00:31:46.754Z,1.80
2022-12-24T00:32:07.809Z,2.10
2022-12-24T00:32:28.864Z,2.20
2022-12-24T00:32:49.919Z,2.20
2022-12-24T00:33:11.021Z,1.90
2022-12-24T00:33:32.060Z,1.80
2022-12-24T00:33:53.122Z,2.00
2022-12-24T00:34:14.195Z,1.90
2022-12-24T00:34:35.238Z,2.10
2022-12-24T00:34:56.296Z,1.90
2022-12-24T00:35:17.401Z,1.70
2022-12-24T00:35:38.456Z,2.00
2022-12-24T00:35:59.513Z,2.10
2022-12-24T00:36:20.609Z,2.00
2022-12-24T00:36:41.663Z,2.40
2022-12-24T00:37:02.716Z,2.20
2022-12-24T00:37:23.806Z,2.30
2022-12-24T00:37:44.839Z,2.20
2022-12-24T00:38:05.899Z,2.10
2022-12-24T00:38:26.972Z,2.10
2022-12-24T00:38:48.026Z,1.80
2022-12-24T00:39:09.087Z,2.20
2022-12-24T00:39:30.154Z,2.10
2022-12-24T00:39:51.208Z,1.90
2022-12-24T00:40:12.287Z,2.10
2022-12-24T00:40:33.356Z,2.00
2022-12-24T00:40:54.419Z,2.10
2022-12-24T00:41:15.482Z,2.00
2022-12-24T00:41:36.557Z,2.10
2022-12-24T00:41:57.613Z,2.10
2022-12-24T00:42:18.663Z,2.20
2022-12-24T00:42:39.733Z,1.60
2022-12-24T00:43:00.798Z,1.90
2022-12-24T00:43:21.868Z,1.80
2022-12-24T00:43:42.911Z,1.80
2022-12-24T00:44:03.972Z,1.70
2022-12-24T00:44:25.047Z,1.80
2022-12-24T00:44:46.095Z,2.10
2022-12-24T00:45:07.178Z,2.20
2022-12-24T00:45:28.263Z,2.20
2022-12-24T00:45:49.451Z,1.90
2022-12-24T00:46:10.522Z,1.70
2022-12-24T00:46:31.649Z,1.80
2022-12-24T00:46:52.691Z,1.80
2022-12-24T00:47:13.751Z,2.00
2022-12-24T00:47:34.840Z,2.10
2022-12-24T00:47:55.891Z,2.10
2022-12-24T00:48:16.952Z,2.00
2022-12-24T00:48:38.024Z,1.70
2022-12-24T00:48:59.079Z,2.10
2022-12-24T00:49:20.144Z,2.00
2022-12-24T00:49:41.172Z,1.90
2022-12-24T00:50:02.337Z,1.60
2022-12-24T00:50:23.372Z,2.00
2022-12-24T00:50:44.695Z,1.80
2022-12-24T00:51:05.855Z,1.60
2022-12-24T00:51:26.914Z,1.70
2022-12-24T00:51:47.941Z,2.00
2022-12-24T00:52:09.005Z,2.00
2022-12-24T00:52:30.061Z,1.90
2022-12-24T00:52:51.136Z,2.20
2022-12-24T00:53:12.174Z,1.90
2022-12-24T00:53:33.245Z,1.90
2022-12-24T00:53:54.311Z,1.90
2022-12-24T00:54:15.362Z,2.00
2022-12-24T00:54:36.459Z,1.80
2022-12-24T00:54:57.569Z,1.90
2022-12-24T00:55:18.617Z,2.20
2022-12-24T00:55:39.685Z,2.00
2022-12-24T00:56:00.757Z,1.90
2022-12-24T00:56:21.809Z,2.00
2022-12-24T00:56:42.872Z,2.00
2022-12-24T00:57:03.951Z,1.90
2022-12-24T00:57:25.025Z,2.00
2022-12-24T00:57:46.084Z,1.90
2022-12-24T00:58:07.178Z,2.00
2022-12-24T00:58:28.197Z,2.00
2022-12-24T00:58:49.273Z,2.20
2022-12-24T00:59:10.326Z,2.10
2022-12-24T00:59:31.370Z,2.00
2022-12-24T00:59:52.439Z,2.10
2022-12-24T01:00:13.513Z,2.20
2022-12-24T01:00:34.582Z,1.90
2022-12-24T01:00:55.637Z,2.20
2022-12-24T01:01:16.951Z,2.30
2022-12-24T01:01:38.154Z,2.20
2022-12-24T01:01:59.352Z,2.00
2022-12-24T01:02:20.669Z,2.00
2022-12-24T01:02:42.066Z,2.30
2022-12-24T01:03:03.417Z,2.30
2022-12-24T01:03:24.530Z,2.10
2022-12-24T01:03:45.678Z,2.10
2022-12-24T01:04:06.725Z,2.20
2022-12-24T01:04:27.794Z,2.00
2022-12-24T01:04:48.836Z,1.80
2022-12-24T01:05:09.899Z,2.30
2022-12-24T01:05:30.955Z,2.10
2022-12-24T01:05:52.016Z,1.80
2022-12-24T01:06:13.075Z,2.00
2022-12-24T01:06:34.299Z,2.30
2022-12-24T01:06:55.351Z,2.10
2022-12-24T01:07:16.407Z,2.10
2022-12-24T01:07:37.476Z,2.10
2022-12-24T01:07:58.542Z,2.10
2022-12-24T01:08:19.606Z,1.90
2022-12-24T01:08:40.676Z,2.20
2022-12-24T01:09:01.746Z,2.30
2022-12-24T01:09:22.825Z,2.20
2022-12-24T01:09:43.855Z,2.20
2022-12-24T01:10:04.923Z,2.30
2022-12-24T01:10:26.016Z,1.90
2022-12-24T01:10:47.033Z,2.40
2022-12-24T01:11:08.090Z,2.10
2022-12-24T01:11:29.168Z,2.10
2022-12-24T01:11:50.356Z,1.90
2022-12-24T01:12:11.416Z,1.90
2022-12-24T01:12:32.474Z,2.00
2022-12-24T01:12:53.531Z,2.20
2022-12-24T01:13:14.587Z,2.00
2022-12-24T01:13:35.656Z,2.10
2022-12-24T01:13:56.706Z,2.30
2022-12-24T01:14:17.768Z,2.30
2022-12-24T01:14:38.833Z,2.30
2022-12-24T01:14:59.878Z,2.20
2022-12-24T01:15:20.937Z,2.10
2022-12-24T01:15:42.053Z,2.30
2022-12-24T01:16:03.144Z,2.20
2022-12-24T01:16:24.299Z,2.20
2022-12-24T01:16:45.371Z,2.00
2022-12-24T01:17:06.490Z,2.10
2022-12-24T01:17:27.509Z,2.00
2022-12-24T01:17:48.577Z,2.20
2022-12-24T01:18:09.634Z,2.20
2022-12-24T01:18:30.751Z,2.00
2022-12-24T01:18:51.869Z,2.20
2022-12-24T01:19:12.924Z,2.20
2022-12-24T01:19:33.985Z,1.90
2022-12-24T01:19:55.035Z,2.00
2022-12-24T01:20:16.101Z,2.10
2022-12-24T01:20:37.166Z,2.10
2022-12-24T01:20:58.223Z,1.90
2022-12-24T01:21:19.280Z,2.20
2022-12-24T01:21:40.343Z,2.20
2022-12-24T01:22:01.398Z,2.10
2022-12-24T01:22:22.473Z,2.20
2022-12-24T01:22:43.559Z,1.90
2022-12-24T01:23:04.619Z,2.00
2022-12-24T01:23:25.667Z,2.00
2022-12-24T01:23:46.751Z,2.00
2022-12-24T01:24:07.779Z,2.00
2022-12-24T01:24:28.841Z,2.30
2022-12-24T01:24:49.897Z,2.40
2022-12-24T01:25:10.988Z,2.40
2022-12-24T01:25:32.039Z,2.30
2022-12-24T01:25:53.105Z,2.30
2022-12-24T01:26:14.187Z,2.30
2022-12-24T01:26:35.219Z,2.30
2022-12-24T01:26:56.266Z,2.00
2022-12-24T01:27:17.320Z,1.90
2022-12-24T01:27:38.389Z,2.30
2022-12-24T01:27:59.463Z,2.30
2022-12-24T01:28:20.554Z,2.20
2022-12-24T01:28:41.571Z,2.10
2022-12-24T01:29:02.636Z,1.90
2022-12-24T01:29:23.759Z,1.60
2022-12-24T01:29:44.773Z,1.80
2022-12-24T01:30:05.830Z,2.00
2022-12-24T01:30:26.939Z,2.30
2022-12-24T01:30:48.032Z,2.40
2022-12-24T01:31:09.122Z,2.20
2022-12-24T01:31:30.264Z,2.10
2022-12-24T01:31:51.384Z,2.30
2022-12-24T01:32:12.464Z,2.30
2022-12-24T01:32:33.509Z,2.00
2022-12-24T01:32:54.713Z,2.00
2022-12-24T01:33:15.876Z,2.00
2022-12-24T01:33:36.908Z,2.00
2022-12-24T01:33:57.967Z,2.20
2022-12-24T01:34:19.045Z,1.80
2022-12-24T01:34:40.083Z,1.80
2022-12-24T01:35:01.141Z,1.80
2022-12-24T01:35:22.196Z,2.00
2022-12-24T01:35:43.268Z,2.10
2022-12-24T01:36:04.328Z,2.40
2022-12-24T01:36:25.368Z,2.00
2022-12-24T01:36:46.427Z,2.10
2022-12-24T01:37:07.501Z,2.00
2022-12-24T01:37:28.545Z,2.00
2022-12-24T01:37:49.623Z,2.00
2022-12-24T01:38:10.713Z,2.00
2022-12-24T01:38:31.761Z,2.10
2022-12-24T01:38:52.836Z,2.10
2022-12-24T01:39:13.886Z,2.00
2022-12-24T01:39:34.942Z,2.10
2022-12-24T01:39:56.004Z,2.20
2022-12-24T01:40:17.077Z,1.80
2022-12-24T01:40:38.159Z,1.90
2022-12-24T01:40:59.189Z,1.90
2022-12-24T01:41:20.249Z,2.00
2022-12-24T01:41:41.347Z,2.00
2022-12-24T01:42:02.374Z,2.00
2022-12-24T01:42:23.427Z,2.00
2022-12-24T01:42:44.493Z,2.20
2022-12-24T01:43:05.566Z,2.00
2022-12-24T01:43:26.628Z,2.10
2022-12-24T01:43:47.703Z,2.20
2022-12-24T01:44:08.785Z,2.00
2022-12-24T01:44:35.744Z,2.70
2022-12-24T01:44:56.793Z,2.20
2022-12-24T01:45:17.846Z,2.50
2022-12-24T01:45:38.907Z,2.00
2022-12-24T01:45:59.969Z,1.90
2022-12-24T01:46:21.072Z,1.90
2022-12-24T01:46:42.231Z,2.10
2022-12-24T01:47:03.292Z,1.90
2022-12-24T01:47:24.365Z,1.90
2022-12-24T01:47:45.412Z,2.00
2022-12-24T01:48:06.475Z,2.10
2022-12-24T01:48:27.632Z,1.90
2022-12-24T01:48:48.678Z,2.10
2022-12-24T01:49:09.740Z,1.70
2022-12-24T01:49:30.811Z,2.10
2022-12-24T01:49:51.885Z,1.80
2022-12-24T01:50:12.914Z,1.80
2022-12-24T01:50:33.972Z,2.00
2022-12-24T01:50:55.035Z,2.10
2022-12-24T01:51:16.087Z,2.30
2022-12-24T01:51:37.143Z,2.10
2022-12-24T01:51:58.205Z,2.20
2022-12-24T01:52:19.278Z,2.20
2022-12-24T01:52:40.335Z,2.50
2022-12-24T01:53:01.386Z,2.80
2022-12-24T01:53:22.447Z,2.90
2022-12-24T01:53:43.659Z,2.30
2022-12-24T01:54:04.726Z,2.10
2022-12-24T01:54:25.784Z,1.80
2022-12-24T01:54:46.845Z,2.10
2022-12-24T01:55:07.916Z,2.00
2022-12-24T01:55:28.980Z,2.00
2022-12-24T01:55:50.085Z,2.40
2022-12-24T01:56:11.121Z,3.00
2022-12-24T01:56:32.190Z,2.40
2022-12-24T01:56:53.227Z,1.80
2022-12-24T01:57:14.424Z,2.00
2022-12-24T01:57:35.559Z,2.10
2022-12-24T01:57:56.599Z,1.70
2022-12-24T01:58:17.693Z,1.90
2022-12-24T01:58:38.772Z,2.10
2022-12-24T01:58:59.852Z,1.90
2022-12-24T01:59:20.915Z,2.00
2022-12-24T01:59:41.993Z,1.90
2022-12-24T02:00:03.044Z,2.00
2022-12-24T02:00:24.123Z,2.10
2022-12-24T02:00:45.149Z,2.00
2022-12-24T02:01:06.250Z,2.00
2022-12-24T02:01:27.379Z,1.90
2022-12-24T02:01:48.548Z,1.80
2022-12-24T02:02:09.770Z,1.90
2022-12-24T02:02:31.078Z,1.80
2022-12-24T02:02:52.443Z,1.80
2022-12-24T02:03:13.619Z,1.80
2022-12-24T02:03:34.722Z,1.90
2022-12-24T02:03:55.819Z,2.00
2022-12-24T02:04:17.084Z,1.90
2022-12-24T02:04:38.157Z,1.90
2022-12-24T02:04:59.251Z,2.00
2022-12-24T02:05:20.310Z,1.80
2022-12-24T02:05:41.360Z,1.80
2022-12-24T02:06:02.443Z,1.90
2022-12-24T02:06:23.485Z,1.90
2022-12-24T02:06:44.528Z,2.00
2022-12-24T02:07:05.598Z,1.90
2022-12-24T02:07:26.657Z,1.90
2022-12-24T02:07:47.712Z,1.70
2022-12-24T02:08:08.771Z,1.80
2022-12-24T02:08:29.837Z,2.50
2022-12-24T02:08:50.890Z,2.10
2022-12-24T02:09:11.961Z,2.20
2022-12-24T02:09:33.035Z,2.00
2022-12-24T02:09:54.094Z,1.70
2022-12-24T02:10:15.159Z,1.60
2022-12-24T02:10:36.208Z,2.00
2022-12-24T02:10:57.295Z,2.10
2022-12-24T02:11:18.335Z,1.90
2022-12-24T02:11:39.400Z,1.90
2022-12-24T02:12:00.493Z,1.70
2022-12-24T02:12:21.566Z,2.20
2022-12-24T02:12:42.624Z,2.10
2022-12-24T02:13:03.670Z,1.80
2022-12-24T02:13:24.749Z,1.90
2022-12-24T02:13:45.792Z,1.70
2022-12-24T02:14:06.881Z,1.60
2022-12-24T02:14:27.923Z,2.20
2022-12-24T02:14:49.010Z,2.20
2022-12-24T02:15:10.084Z,2.00
2022-12-24T02:15:31.136Z,2.10
2022-12-24T02:15:52.263Z,1.80
2022-12-24T02:16:13.378Z,2.50
2022-12-24T02:16:34.480Z,2.20
2022-12-24T02:16:55.563Z,1.80
2022-12-24T02:17:16.613Z,1.90
2022-12-24T02:17:37.698Z,1.90
2022-12-24T02:17:58.755Z,2.00
2022-12-24T02:18:19.820Z,1.90
2022-12-24T02:18:40.880Z,2.10
2022-12-24T02:19:01.941Z,2.30
2022-12-24T02:19:22.981Z,2.10
2022-12-24T02:19:44.097Z,2.10
2022-12-24T02:20:05.155Z,2.30
2022-12-24T02:20:26.224Z,2.10
2022-12-24T02:20:47.267Z,1.70
2022-12-24T02:21:08.331Z,1.90
2022-12-24T02:21:29.392Z,2.30
2022-12-24T02:21:50.463Z,2.10
2022-12-24T02:22:11.507Z,2.00
2022-12-24T02:22:32.564Z,1.90
2022-12-24T02:22:53.627Z,2.10
2022-12-24T02:23:14.687Z,2.30
2022-12-24T02:23:35.790Z,2.00
2022-12-24T02:23:56.812Z,1.70
2022-12-24T02:24:17.870Z,1.80
2022-12-24T02:24:38.941Z,2.20
2022-12-24T02:24:59.985Z,2.00
2022-12-24T02:25:21.064Z,1.90
2022-12-24T02:25:42.120Z,2.30
2022-12-24T02:26:03.201Z,2.20
2022-12-24T02:26:24.249Z,1.90
2022-12-24T02:26:45.317Z,2.10
2022-12-24T02:27:06.392Z,2.20
2022-12-24T02:27:27.443Z,1.90
2022-12-24T02:27:48.505Z,2.00
2022-12-24T02:28:09.571Z,2.00
2022-12-24T02:28:30.630Z,2.10
2022-12-24T02:28:51.689Z,1.90
2022-12-24T02:29:12.798Z,2.30
2022-12-24T02:29:33.821Z,2.10
2022-12-24T02:29:54.888Z,2.00
2022-12-24T02:30:15.945Z,2.20
2022-12-24T02:30:37.061Z,2.30
2022-12-24T02:30:58.153Z,1.90
2022-12-24T02:31:19.273Z,1.90
2022-12-24T02:31:40.353Z,2.20
2022-12-24T02:32:01.393Z,2.30
2022-12-24T02:32:22.462Z,2.00
2022-12-24T02:32:43.524Z,1.70
2022-12-24T02:33:04.601Z,2.00
2022-12-24T02:33:25.645Z,1.90
2022-12-24T02:33:46.690Z,1.90
2022-12-24T02:34:07.769Z,2.20
2022-12-24T02:34:28.816Z,2.40
2022-12-24T02:34:49.874Z,2.20
2022-12-24T02:35:10.952Z,2.30
2022-12-24T02:35:31.997Z,1.90
2022-12-24T02:35:53.209Z,2.10
2022-12-24T02:36:14.261Z,2.00
2022-12-24T02:36:35.316Z,1.90
2022-12-24T02:36:56.386Z,2.00
2022-12-24T02:37:17.437Z,1.70
2022-12-24T02:37:38.500Z,2.10
2022-12-24T02:37:59.554Z,2.00
2022-12-24T02:38:20.609Z,1.80
2022-12-24T02:38:41.680Z,1.90
2022-12-24T02:39:02.742Z,2.00
2022-12-24T02:39:23.793Z,1.90
2022-12-24T02:39:44.859Z,1.80
2022-12-24T02:40:12.140Z,1.90
2022-12-24T02:40:32.912Z,1.90
2022-12-24T02:40:53.966Z,1.90
2022-12-24T02:41:15.077Z,2.00
2022-12-24T02:41:36.118Z,2.30
2022-12-24T02:41:57.168Z,2.20
2022-12-24T02:42:18.284Z,2.00
2022-12-24T02:42:39.379Z,2.50
2022-12-24T02:43:00.444Z,2.10
2022-12-24T02:43:21.488Z,2.20
2022-12-24T02:43:42.561Z,2.10
2022-12-24T02:44:03.623Z,2.20
2022-12-24T02:44:24.695Z,2.10
2022-12-24T02:44:45.735Z,2.00
2022-12-24T02:45:06.800Z,2.00
2022-12-24T02:45:27.863Z,2.10
2022-12-24T02:45:53.726Z,2.00
2022-12-24T02:46:16.020Z,2.10
2022-12-24T02:46:37.129Z,2.30
2022-12-24T02:46:58.205Z,2.50
2022-12-24T02:47:19.242Z,2.00
2022-12-24T02:47:40.312Z,2.00
2022-12-24T02:48:01.355Z,2.30
2022-12-24T02:48:22.418Z,2.10
2022-12-24T02:48:43.485Z,2.10
2022-12-24T02:49:04.538Z,2.10
2022-12-24T02:49:25.601Z,2.00
2022-12-24T02:49:46.680Z,2.10
2022-12-24T02:50:07.764Z,2.00
2022-12-24T02:50:28.800Z,2.20
2022-12-24T02:50:49.871Z,2.10
2022-12-24T02:51:10.928Z,2.40
2022-12-24T02:51:31.995Z,2.50
2022-12-24T02:51:53.072Z,2.20
2022-12-24T02:52:14.117Z,2.30
2022-12-24T02:52:35.184Z,2.70
2022-12-24T02:52:56.254Z,2.30
2022-12-24T02:53:17.288Z,2.00
2022-12-24T02:53:38.361Z,2.10
2022-12-24T02:53:59.424Z,2.40
2022-12-24T02:54:20.460Z,2.60
2022-12-24T02:54:41.516Z,2.10
2022-12-24T02:55:02.693Z,2.20
2022-12-24T02:55:23.775Z,2.30
2022-12-24T02:55:44.827Z,2.40
2022-12-24T02:56:05.885Z,2.60
2022-12-24T02:56:26.963Z,2.30
2022-12-24T02:56:48.041Z,2.20
2022-12-24T02:57:09.091Z,2.10
2022-12-24T02:57:30.142Z,2.20
2022-12-24T02:57:51.201Z,2.60
2022-12-24T02:58:12.255Z,3.00
2022-12-24T02:58:33.325Z,2.50
2022-12-24T02:58:54.414Z,2.50
2022-12-24T02:59:15.449Z,2.20
2022-12-24T02:59:36.510Z,2.20
2022-12-24T02:59:57.566Z,2.50
2022-12-24T03:00:18.627Z,2.10
2022-12-24T03:00:39.821Z,2.20
2022-12-24T03:01:00.956Z,2.10
2022-12-24T03:01:22.154Z,2.20
2022-12-24T03:01:43.480Z,1.90
2022-12-24T03:02:04.904Z,2.10
2022-12-24T03:02:26.132Z,2.20
2022-12-24T03:02:47.350Z,1.90
2022-12-24T03:03:08.538Z,2.30
2022-12-24T03:03:29.575Z,2.00
2022-12-24T03:03:50.633Z,2.40
2022-12-24T03:04:11.712Z,2.10
2022-12-24T03:04:32.758Z,2.40
2022-12-24T03:04:53.810Z,2.10
2022-12-24T03:05:14.877Z,2.10
2022-12-24T03:05:35.935Z,2.30
2022-12-24T03:05:56.992Z,2.10
2022-12-24T03:06:18.074Z,1.80
2022-12-24T03:06:39.138Z,2.20
2022-12-24T03:07:00.210Z,2.00
2022-12-24T03:07:21.294Z,2.10
2022-12-24T03:07:42.332Z,2.30
2022-12-24T03:08:03.406Z,2.80
2022-12-24T03:08:24.445Z,2.10
2022-12-24T03:08:45.502Z,2.20
2022-12-24T03:09:06.596Z,2.30
2022-12-24T03:09:27.619Z,2.10
2022-12-24T03:09:48.680Z,2.50
2022-12-24T03:10:09.732Z,2.20
2022-12-24T03:10:30.795Z,2.40
2022-12-24T03:10:51.849Z,2.20
2022-12-24T03:11:12.986Z,2.50
2022-12-24T03:11:34.046Z,2.30
2022-12-24T03:11:55.103Z,2.10
2022-12-24T03:12:16.150Z,2.10
2022-12-24T03:12:37.224Z,2.20
2022-12-24T03:12:58.301Z,2.20
2022-12-24T03:13:19.349Z,2.10
2022-12-24T03:13:40.404Z,2.10
2022-12-24T03:14:01.485Z,2.00
2022-12-24T03:14:22.532Z,2.20
2022-12-24T03:14:43.607Z,2.10
2022-12-24T03:15:04.674Z,2.20
2022-12-24T03:15:25.716Z,1.80
2022-12-24T03:15:46.784Z,2.40
2022-12-24T03:16:07.848Z,2.30
2022-12-24T03:16:28.917Z,2.60
2022-12-24T03:16:50.011Z,2.40
2022-12-24T03:17:11.089Z,2.20
2022-12-24T03:17:32.149Z,2.50
2022-12-24T03:17:53.365Z,2.50
2022-12-24T03:18:14.425Z,2.10
2022-12-24T03:18:35.479Z,2.20
2022-12-24T03:18:56.555Z,2.10
2022-12-24T03:19:17.621Z,2.20
2022-12-24T03:19:38.667Z,2.30
2022-12-24T03:19:59.724Z,2.40
2022-12-24T03:20:20.778Z,2.20
2022-12-24T03:20:41.852Z,2.00
2022-12-24T03:21:02.911Z,2.20
2022-12-24T03:21:23.961Z,2.20
2022-12-24T03:21:45.059Z,2.00
2022-12-24T03:22:06.085Z,2.40
2022-12-24T03:22:27.188Z,2.30
2022-12-24T03:22:48.235Z,2.20
2022-12-24T03:23:09.323Z,2.10
2022-12-24T03:23:30.404Z,2.10
2022-12-24T03:23:51.481Z,2.20
2022-12-24T03:24:12.516Z,2.30
2022-12-24T03:24:33.582Z,2.00
2022-12-24T03:24:54.656Z,2.00
2022-12-24T03:25:15.727Z,2.00
2022-12-24T03:25:36.793Z,2.10
2022-12-24T03:25:57.856Z,2.40
2022-12-24T03:26:18.938Z,1.90
2022-12-24T03:26:39.979Z,2.30
2022-12-24T03:27:01.023Z,2.20
2022-12-24T03:27:22.087Z,2.20
2022-12-24T03:27:43.153Z,2.50
2022-12-24T03:28:04.222Z,2.30
2022-12-24T03:28:25.285Z,2.10
2022-12-24T03:28:46.359Z,2.20
2022-12-24T03:29:07.413Z,2.20
2022-12-24T03:29:28.472Z,2.30
2022-12-24T03:29:49.516Z,2.20
2022-12-24T03:30:10.577Z,2.50
2022-12-24T03:30:31.652Z,2.20
2022-12-24T03:30:52.696Z,2.30
2022-12-24T03:31:13.804Z,2.00
2022-12-24T03:31:34.938Z,2.00
2022-12-24T03:31:56.047Z,2.10
2022-12-24T03:32:17.071Z,2.10
2022-12-24T03:32:38.129Z,2.40
2022-12-24T03:32:59.213Z,1.90
2022-12-24T03:33:20.246Z,1.90
2022-12-24T03:33:41.331Z,2.10
2022-12-24T03:34:02.392Z,2.70
2022-12-24T03:34:23.467Z,2.40
2022-12-24T03:34:44.547Z,2.00
2022-12-24T03:35:05.588Z,2.00
2022-12-24T03:35:26.653Z,2.30
2022-12-24T03:35:47.719Z,2.40
2022-12-24T03:36:08.774Z,2.60
2022-12-24T03:36:29.847Z,2.20
2022-12-24T03:36:50.912Z,2.50
2022-12-24T03:37:11.984Z,2.40
2022-12-24T03:37:33.057Z,2.30
2022-12-24T03:37:54.102Z,2.20
2022-12-24T03:38:15.153Z,2.30
2022-12-24T03:38:36.201Z,2.10
2022-12-24T03:38:57.427Z,2.00
2022-12-24T03:39:18.485Z,2.10
2022-12-24T03:39:39.549Z,2.20
2022-12-24T03:40:00.634Z,2.10
2022-12-24T03:40:21.672Z,1.90
2022-12-24T03:40:42.730Z,1.90
2022-12-24T03:41:03.801Z,2.40
2022-12-24T03:41:24.850Z,2.00
2022-12-24T03:41:45.935Z,1.90
2022-12-24T03:42:07.004Z,2.20
2022-12-24T03:42:28.047Z,2.20
2022-12-24T03:42:49.127Z,2.30
2022-12-24T03:43:10.170Z,2.00
2022-12-24T03:43:31.229Z,1.90
2022-12-24T03:43:52.291Z,2.20
2022-12-24T03:44:13.552Z,2.10
2022-12-24T03:44:34.564Z,2.40
2022-12-24T03:44:55.628Z,2.10
2022-12-24T03:45:16.688Z,2.00
2022-12-24T03:45:37.779Z,2.40
2022-12-24T03:45:58.940Z,2.70
2022-12-24T03:46:20.097Z,2.50
2022-12-24T03:46:41.132Z,2.30
2022-12-24T03:47:02.190Z,2.00
2022-12-24T03:47:23.242Z,2.10
2022-12-24T03:47:44.296Z,1.90
2022-12-24T03:48:05.357Z,2.10
2022-12-24T03:48:32.509Z,2.00
2022-12-24T03:48:53.390Z,2.40
2022-12-24T03:49:14.595Z,2.10
2022-12-24T03:49:35.664Z,1.90
2022-12-24T03:49:56.744Z,2.30
2022-12-24T03:50:17.792Z,2.10
2022-12-24T03:50:38.917Z,1.80
2022-12-24T03:50:59.968Z,2.10
2022-12-24T03:51:21.067Z,1.90
2022-12-24T03:51:42.130Z,2.00
2022-12-24T03:52:03.179Z,2.00
2022-12-24T03:52:24.239Z,2.10
2022-12-24T03:52:45.306Z,2.30
2022-12-24T03:53:06.381Z,2.00
2022-12-24T03:53:27.405Z,2.00
2022-12-24T03:53:48.462Z,2.20
2022-12-24T03:54:09.517Z,2.00
2022-12-24T03:54:30.722Z,2.10
2022-12-24T03:54:51.786Z,2.00
2022-12-24T03:55:12.874Z,2.10
2022-12-24T03:55:33.901Z,2.00
2022-12-24T03:55:54.963Z,2.00
2022-12-24T03:56:16.028Z,2.10
2022-12-24T03:56:37.097Z,2.20
2022-12-24T03:56:58.165Z,2.20
2022-12-24T03:57:19.207Z,2.10
2022-12-24T03:57:40.286Z,2.40
2022-12-24T03:58:01.323Z,2.30
2022-12-24T03:58:22.391Z,2.00
2022-12-24T03:58:43.465Z,2.10
2022-12-24T03:59:04.502Z,2.10
2022-12-24T03:59:25.563Z,2.00
2022-12-24T03:59:46.632Z,2.20
2022-12-24T04:00:07.733Z,2.30
2022-12-24T04:00:28.754Z,2.10
2022-12-24T04:00:49.856Z,1.90
2022-12-24T04:01:11.065Z,2.00
2022-12-24T04:01:32.376Z,2.30
2022-12-24T04:01:53.872Z,2.40
2022-12-24T04:02:15.203Z,2.30
2022-12-24T04:02:36.592Z,2.00
2022-12-24T04:02:57.766Z,2.10
2022-12-24T04:03:18.914Z,1.90
2022-12-24T04:03:39.937Z,2.10
2022-12-24T04:04:01.018Z,1.90
2022-12-24T04:04:22.052Z,1.80
2022-12-24T04:04:43.106Z,1.90
2022-12-24T04:05:04.202Z,2.00
2022-12-24T04:05:25.242Z,2.00
2022-12-24T04:05:46.314Z,1.80
2022-12-24T04:06:07.407Z,1.80
2022-12-24T04:06:28.448Z,1.60
2022-12-24T04:06:49.509Z,1.80
2022-12-24T04:07:10.565Z,2.30
2022-12-24T04:07:31.628Z,2.20
2022-12-24T04:07:52.683Z,1.80
2022-12-24T04:08:13.763Z,2.20
2022-12-24T04:08:34.808Z,2.00
2022-12-24T04:08:55.855Z,2.10
2022-12-24T04:09:16.940Z,1.90
2022-12-24T04:09:37.975Z,1.80
2022-12-24T04:09:59.040Z,2.20
2022-12-24T04:10:20.178Z,2.10
2022-12-24T04:10:41.205Z,1.90
2022-12-24T04:11:07.740Z,1.70
2022-12-24T04:11:29.226Z,1.80
2022-12-24T04:11:50.301Z,1.60
2022-12-24T04:12:11.374Z,2.30
2022-12-24T04:12:32.418Z,2.00
2022-12-24T04:12:53.483Z,1.70
2022-12-24T04:13:14.550Z,2.10
2022-12-24T04:13:35.610Z,2.10
2022-12-24T04:13:56.656Z,2.10
2022-12-24T04:14:17.727Z,1.80
2022-12-24T04:14:38.797Z,1.60
2022-12-24T04:14:59.838Z,1.50
2022-12-24T04:15:20.966Z,2.20
2022-12-24T04:15:42.063Z,1.90
2022-12-24T04:16:03.165Z,1.80
2022-12-24T04:16:24.265Z,2.00
2022-12-24T04:16:45.340Z,2.00
2022-12-24T04:17:06.556Z,1.80
2022-12-24T04:17:27.666Z,2.00
2022-12-24T04:17:48.715Z,1.90
2022-12-24T04:18:09.773Z,2.10
2022-12-24T04:18:30.843Z,2.20
2022-12-24T04:18:51.910Z,2.30
2022-12-24T04:19:12.967Z,1.90
2022-12-24T04:19:34.030Z,1.80
2022-12-24T04:19:55.073Z,2.00
2022-12-24T04:20:16.142Z,2.10
2022-12-24T04:20:37.204Z,2.30
2022-12-24T04:20:58.403Z,2.00
2022-12-24T04:21:19.457Z,1.70
2022-12-24T04:21:40.530Z,1.60
2022-12-24T04:22:01.606Z,2.00
2022-12-24T04:22:22.701Z,1.80
2022-12-24T04:22:43.723Z,1.80
2022-12-24T04:23:04.780Z,2.00
2022-12-24T04:23:25.845Z,2.10
2022-12-24T04:23:46.904Z,1.90
2022-12-24T04:24:07.952Z,1.60
2022-12-24T04:24:29.015Z,1.60
2022-12-24T04:24:50.068Z,1.90
2022-12-24T04:25:11.171Z,1.90
2022-12-24T04:25:32.213Z,2.20
2022-12-24T04:25:53.264Z,2.40
2022-12-24T04:26:14.518Z,2.20
2022-12-24T04:26:35.561Z,1.90
2022-12-24T04:26:56.610Z,1.90
2022-12-24T04:27:17.749Z,2.00
2022-12-24T04:27:38.786Z,1.90
2022-12-24T04:27:59.828Z,1.90
2022-12-24T04:28:20.889Z,2.00
2022-12-24T04:28:41.942Z,1.90
2022-12-24T04:29:03.006Z,2.00
2022-12-24T04:29:24.068Z,1.90
2022-12-24T04:29:45.112Z,2.20
2022-12-24T04:30:06.172Z,1.90
2022-12-24T04:30:27.236Z,1.90
2022-12-24T04:30:48.295Z,2.10
2022-12-24T04:31:09.361Z,2.00
2022-12-24T04:31:30.505Z,1.90
2022-12-24T04:31:51.636Z,2.00
2022-12-24T04:32:12.796Z,2.20
2022-12-24T04:32:33.914Z,2.90
2022-12-24T04:32:54.944Z,3.00
2022-12-24T04:33:16.004Z,3.20
2022-12-24T04:33:37.062Z,3.10
2022-12-24T04:33:58.124Z,2.40
2022-12-24T04:34:19.179Z,2.70
2022-12-24T04:34:40.268Z,2.70
2022-12-24T04:35:01.313Z,2.90
2022-12-24T04:35:22.377Z,2.90
2022-12-24T04:35:43.457Z,3.50
2022-12-24T04:36:04.514Z,7.50
2022-12-24T04:36:25.550Z,17.70
2022-12-24T04:36:46.626Z,25.60
2022-12-24T04:37:07.725Z,26.80
2022-12-24T04:37:28.773Z,23.10
2022-12-24T04:37:49.830Z,18.90
2022-12-24T04:38:10.891Z,24.40
2022-12-24T04:38:31.938Z,31.70
2022-12-24T04:38:53.008Z,23.20
2022-12-24T04:39:14.118Z,15.20
2022-12-24T04:39:35.134Z,11.00
2022-12-24T04:39:56.199Z,8.70
2022-12-24T04:40:17.252Z,9.70
2022-12-24T04:40:38.314Z,7.00
2022-12-24T04:40:59.367Z,5.00